Teeds Grove, Iowa
Current Conditions -  °F | °C
As of 3:15 AM on Monday 22 Dec 2014 (Local Time) from KSFY Reporting Station
Overcast Overcast  
Wind Chill: 29°   Ceiling: 3700
Heat Index: 35°   Visibility: 7mi
Dew Point: 31°   Wind: 8mph
Humidity: 87%   Direction: 140°SE
Pressure: 29.88"   Gusts: NA
Location:  42.01°N, 90.25°W
Report Text: KSFY 220915Z AUTO 14007KT 7SM BKN037 OVC060 02/00 A2988 RMK AO2 T00171003
Loading
Personal Weather Stations






























Interactive Weather Map New forecast layout! Learn more

10-Day Weather Forecast

Advertisements
Track Severe Weather on mobile